Time;durP1;ratioP1;P1;durP2;ratioP2;P2;SDS_P1;SDS_P2;PMS_P1;PMS_P2;Temp;Humidity;BMP_temperature;BMP_pressure;BME280_temperature;BME280_humidity;BME280_pressure;Samples;Min_cycle;Max_cycle;Signal;HPM_P1;HPM_P2
2022/01/09 00:01:37;;;;;;;42.83;32.00;;;;;;;;;;5004031;28;20502;-64
2022/01/09 00:04:03;;;;;;;42.17;32.53;;;;;;;;;;5010232;28;20372;-64
2022/01/09 00:06:29;;;;;;;43.43;31.40;;;;;;;;;;5004097;28;20499;-64
2022/01/09 00:08:55;;;;;;;44.17;31.90;;;;;;;;;;5012359;28;20132;-64
2022/01/09 00:11:26;;;;;;;46.23;32.87;;;;;;;;;;5005631;28;20022;-64
2022/01/09 00:13:55;;;;;;;41.00;32.07;;;;;;;;;;5008348;28;20053;-64
2022/01/09 00:16:21;;;;;;;43.23;32.73;;;;;;;;;;5005032;28;20129;-64
2022/01/09 00:18:48;;;;;;;43.07;31.47;;;;;;;;;;5005880;28;20030;-64
2022/01/09 00:21:14;;;;;;;41.10;30.93;;;;;;;;;;5004657;28;20395;-64
2022/01/09 00:23:42;;;;;;;41.40;30.83;;;;;;;;;;5006904;28;20374;-64
2022/01/09 00:26:08;;;;;;;45.73;33.37;;;;;;;;;;5004182;28;22435;-64
2022/01/09 00:28:34;;;;;;;40.43;32.67;;;;;;;;;;5003421;28;20057;-65
2022/01/09 00:31:00;;;;;;;45.13;32.23;;;;;;;;;;5009764;28;20041;-64
2022/01/09 00:33:26;;;;;;;45.63;32.33;;;;;;;;;;5004653;28;20038;-64
2022/01/09 00:35:52;;;;;;;44.00;33.40;;;;;;;;;;5006155;28;20042;-64
2022/01/09 00:38:19;;;;;;;45.53;33.70;;;;;;;;;;5006164;28;20263;-64
2022/01/09 00:40:45;;;;;;;47.87;34.57;;;;;;;;;;5005461;28;20057;-64
2022/01/09 00:43:11;;;;;;;42.13;33.43;;;;;;;;;;5006965;28;20029;-64
2022/01/09 00:45:37;;;;;;;46.40;33.33;;;;;;;;;;5007690;28;20066;-64
2022/01/09 00:48:03;;;;;;;45.17;33.50;;;;;;;;;;5006824;28;20030;-64
2022/01/09 00:50:29;;;;;;;42.73;32.87;;;;;;;;;;5006631;28;20494;-65
2022/01/09 00:52:55;;;;;;;47.10;34.17;;;;;;;;;;4996747;28;20068;-64
2022/01/09 00:55:21;;;;;;;47.13;34.60;;;;;;;;;;5006969;28;20041;-64
2022/01/09 00:57:47;;;;;;;45.10;31.83;;;;;;;;;;5008067;28;20360;-64
2022/01/09 01:00:14;;;;;;;45.60;33.30;;;;;;;;;;5005900;28;20041;-64
2022/01/09 01:02:40;;;;;;;41.10;32.53;;;;;;;;;;5005378;28;20036;-64
2022/01/09 01:05:07;;;;;;;47.87;33.63;;;;;;;;;;5007808;28;20498;-64
2022/01/09 01:07:33;;;;;;;43.17;32.73;;;;;;;;;;5006087;28;20132;-64
2022/01/09 01:09:59;;;;;;;44.47;32.37;;;;;;;;;;5007909;28;20100;-64
2022/01/09 01:12:26;;;;;;;45.53;34.10;;;;;;;;;;5010433;28;20091;-64
2022/01/09 01:14:53;;;;;;;45.77;33.43;;;;;;;;;;5007368;28;20060;-64
2022/01/09 01:17:21;;;;;;;48.07;33.03;;;;;;;;;;5009135;28;20073;-64
2022/01/09 01:19:47;;;;;;;47.50;32.80;;;;;;;;;;5006533;28;20032;-63
2022/01/09 01:22:14;;;;;;;44.80;32.63;;;;;;;;;;5006034;28;20444;-64
2022/01/09 01:24:40;;;;;;;42.50;32.47;;;;;;;;;;5008054;28;20037;-64
2022/01/09 01:27:06;;;;;;;45.37;33.87;;;;;;;;;;5001635;28;20112;-64
2022/01/09 01:29:32;;;;;;;47.10;34.47;;;;;;;;;;5005431;28;20518;-64
2022/01/09 01:31:58;;;;;;;42.13;33.23;;;;;;;;;;5009930;28;20029;-64
2022/01/09 01:34:24;;;;;;;44.23;32.53;;;;;;;;;;5005853;28;20068;-64
2022/01/09 01:36:50;;;;;;;45.90;34.13;;;;;;;;;;5006827;28;20038;-64
2022/01/09 01:39:16;;;;;;;43.67;33.97;;;;;;;;;;5006411;28;20439;-64
2022/01/09 01:41:42;;;;;;;49.97;34.90;;;;;;;;;;5005432;28;20104;-64
2022/01/09 01:44:09;;;;;;;47.23;33.93;;;;;;;;;;5005353;28;20092;-64
2022/01/09 01:46:36;;;;;;;47.07;33.40;;;;;;;;;;5005261;28;20034;-64
2022/01/09 01:49:02;;;;;;;45.23;35.20;;;;;;;;;;5003595;28;20120;-64
2022/01/09 01:51:28;;;;;;;48.07;33.70;;;;;;;;;;5005260;28;20502;-64
2022/01/09 01:53:55;;;;;;;44.13;33.70;;;;;;;;;;5008062;28;20026;-64
2022/01/09 01:56:21;;;;;;;50.57;34.23;;;;;;;;;;5012740;28;20060;-64
2022/01/09 01:58:48;;;;;;;46.00;33.57;;;;;;;;;;5011388;28;20499;-64
2022/01/09 02:01:15;;;;;;;45.43;33.30;;;;;;;;;;5008687;28;20101;-65
2022/01/09 02:03:41;;;;;;;47.37;34.63;;;;;;;;;;5004258;28;20034;-64
2022/01/09 02:06:07;;;;;;;47.47;35.23;;;;;;;;;;5007947;28;20032;-64
2022/01/09 02:08:33;;;;;;;47.90;34.40;;;;;;;;;;5006323;28;20382;-64
2022/01/09 02:11:00;;;;;;;47.23;34.70;;;;;;;;;;5007411;28;20054;-64
2022/01/09 02:13:26;;;;;;;45.93;35.17;;;;;;;;;;5005399;28;20041;-64
2022/01/09 02:15:57;;;;;;;45.33;34.13;;;;;;;;;;5005473;28;20037;-65
2022/01/09 02:18:23;;;;;;;47.83;35.73;;;;;;;;;;5005743;28;20117;-64
2022/01/09 02:20:50;;;;;;;48.40;35.57;;;;;;;;;;5006370;28;20037;-64
2022/01/09 02:23:17;;;;;;;45.80;34.23;;;;;;;;;;5005432;28;20391;-63
2022/01/09 02:25:44;;;;;;;46.63;34.93;;;;;;;;;;5004830;28;20475;-63
2022/01/09 02:28:11;;;;;;;46.13;35.67;;;;;;;;;;5003859;28;20023;-63
2022/01/09 02:30:37;;;;;;;50.73;35.70;;;;;;;;;;5005899;28;20034;-64
2022/01/09 02:33:05;;;;;;;49.67;36.10;;;;;;;;;;5003334;28;20768;-63
2022/01/09 02:35:33;;;;;;;48.13;35.73;;;;;;;;;;5005975;28;20045;-63
2022/01/09 02:37:59;;;;;;;50.07;36.30;;;;;;;;;;5004137;28;20029;-63
2022/01/09 02:40:25;;;;;;;47.97;34.90;;;;;;;;;;5001923;28;20049;-63
2022/01/09 02:42:51;;;;;;;47.83;34.30;;;;;;;;;;5001917;28;20132;-63
2022/01/09 02:45:21;;;;;;;44.20;34.40;;;;;;;;;;5004693;28;20034;-63
2022/01/09 02:47:47;;;;;;;42.77;34.70;;;;;;;;;;5006756;28;20502;-63
2022/01/09 02:50:39;;;;;;;48.93;35.13;;;;;;;;;;5006123;28;20037;-63
2022/01/09 02:53:11;;;;;;;49.27;36.73;;;;;;;;;;5003611;28;20499;-63
2022/01/09 02:55:37;;;;;;;52.17;39.20;;;;;;;;;;5002911;28;20538;-63
2022/01/09 02:58:03;;;;;;;50.30;36.93;;;;;;;;;;5004179;28;20549;-63
2022/01/09 03:00:31;;;;;;;49.07;38.13;;;;;;;;;;5002340;28;20030;-63
2022/01/09 03:02:57;;;;;;;56.10;38.83;;;;;;;;;;5004959;28;20030;-64
2022/01/09 03:05:24;;;;;;;49.90;36.73;;;;;;;;;;5003850;28;20571;-63
2022/01/09 03:07:50;;;;;;;57.37;38.00;;;;;;;;;;5004536;28;20026;-63
2022/01/09 03:10:17;;;;;;;52.17;36.87;;;;;;;;;;5005987;28;20056;-63
2022/01/09 03:12:44;;;;;;;47.70;37.40;;;;;;;;;;5006613;28;20026;-63
2022/01/09 03:15:10;;;;;;;46.83;35.90;;;;;;;;;;5005508;28;20045;-63
2022/01/09 03:17:37;;;;;;;47.43;34.00;;;;;;;;;;5004251;28;20026;-63
2022/01/09 03:20:05;;;;;;;44.20;35.47;;;;;;;;;;5003223;28;20034;-63
2022/01/09 03:22:31;;;;;;;49.60;36.17;;;;;;;;;;5004610;28;20562;-63
2022/01/09 03:24:57;;;;;;;43.10;33.83;;;;;;;;;;5005405;28;20037;-63
2022/01/09 03:27:23;;;;;;;47.87;34.57;;;;;;;;;;5004114;28;20041;-63
2022/01/09 03:29:49;;;;;;;52.00;35.37;;;;;;;;;;5005800;28;20034;-63
2022/01/09 03:32:15;;;;;;;42.77;34.27;;;;;;;;;;5004132;28;20519;-63
2022/01/09 03:34:41;;;;;;;42.53;33.90;;;;;;;;;;5003165;28;20152;-63
2022/01/09 03:37:07;;;;;;;46.13;33.60;;;;;;;;;;5007251;28;20054;-63
2022/01/09 03:39:33;;;;;;;42.27;32.20;;;;;;;;;;5004919;28;20107;-63
2022/01/09 03:42:00;;;;;;;44.67;31.50;;;;;;;;;;5001780;28;20038;-63
2022/01/09 03:44:29;;;;;;;40.43;29.63;;;;;;;;;;5005382;28;20034;-63
2022/01/09 03:46:55;;;;;;;43.47;31.07;;;;;;;;;;5003786;28;20480;-64
2022/01/09 03:49:22;;;;;;;38.20;30.07;;;;;;;;;;5005464;28;20057;-63
2022/01/09 03:51:51;;;;;;;41.50;30.87;;;;;;;;;;5000873;28;20097;-63
2022/01/09 03:54:19;;;;;;;40.90;30.80;;;;;;;;;;5001755;28;20440;-63
2022/01/09 03:56:45;;;;;;;45.27;31.13;;;;;;;;;;5005006;28;20034;-64
2022/01/09 03:59:11;;;;;;;42.00;32.00;;;;;;;;;;5003051;28;20034;-64
2022/01/09 04:01:37;;;;;;;39.13;31.37;;;;;;;;;;5002385;28;20088;-64
2022/01/09 04:04:04;;;;;;;45.37;32.60;;;;;;;;;;5005442;28;20034;-63
2022/01/09 04:06:30;;;;;;;43.23;31.60;;;;;;;;;;5003293;28;20049;-64
2022/01/09 04:08:58;;;;;;;40.23;29.47;;;;;;;;;;5005536;28;20034;-64
2022/01/09 04:11:30;;;;;;;39.40;30.80;;;;;;;;;;5004127;28;20034;-64
2022/01/09 04:13:56;;;;;;;37.13;30.37;;;;;;;;;;4992078;28;20050;-64
2022/01/09 04:16:22;;;;;;;39.40;30.87;;;;;;;;;;5008753;28;20048;-64
2022/01/09 04:18:48;;;;;;;40.40;31.67;;;;;;;;;;5007600;28;20022;-64
2022/01/09 04:21:14;;;;;;;40.50;31.33;;;;;;;;;;5010147;28;20029;-64
2022/01/09 04:23:40;;;;;;;40.43;30.90;;;;;;;;;;5009433;28;20033;-64
2022/01/09 04:26:06;;;;;;;42.63;32.13;;;;;;;;;;5005266;28;20037;-64
2022/01/09 04:28:32;;;;;;;40.57;31.27;;;;;;;;;;5012010;28;20112;-63
2022/01/09 04:30:58;;;;;;;40.07;30.30;;;;;;;;;;5005209;28;20030;-63
2022/01/09 04:33:24;;;;;;;43.03;30.90;;;;;;;;;;5006343;28;20470;-65
2022/01/09 04:35:51;;;;;;;41.97;30.90;;;;;;;;;;5006059;28;20046;-64
2022/01/09 04:38:17;;;;;;;39.90;30.30;;;;;;;;;;5010462;28;20433;-64
2022/01/09 04:40:43;;;;;;;37.33;30.20;;;;;;;;;;5004938;28;20498;-64
2022/01/09 04:43:11;;;;;;;37.80;30.73;;;;;;;;;;5006360;28;20036;-64
2022/01/09 04:45:37;;;;;;;38.30;29.60;;;;;;;;;;5005957;28;20041;-64
2022/01/09 04:48:06;;;;;;;40.50;30.43;;;;;;;;;;4996551;28;20100;-64
2022/01/09 04:50:35;;;;;;;39.33;31.03;;;;;;;;;;5003870;28;20392;-65
2022/01/09 04:53:05;;;;;;;42.87;31.47;;;;;;;;;;5007527;28;20494;-65
2022/01/09 04:55:32;;;;;;;38.23;30.73;;;;;;;;;;5008073;28;20088;-64
2022/01/09 04:57:58;;;;;;;39.23;31.00;;;;;;;;;;5005671;28;20026;-64
2022/01/09 05:00:24;;;;;;;40.30;30.67;;;;;;;;;;5005643;28;20034;-64
2022/01/09 05:02:50;;;;;;;40.80;29.60;;;;;;;;;;4986883;28;20361;-64
2022/01/09 05:05:17;;;;;;;40.07;30.63;;;;;;;;;;5009294;28;20476;-65
2022/01/09 05:07:44;;;;;;;38.87;30.50;;;;;;;;;;5007218;28;20033;-64
2022/01/09 05:10:10;;;;;;;39.47;29.53;;;;;;;;;;5005213;28;20081;-65
2022/01/09 05:12:37;;;;;;;39.40;29.27;;;;;;;;;;5002155;28;20034;-64
2022/01/09 05:15:04;;;;;;;41.33;29.53;;;;;;;;;;5004638;28;20138;-64
2022/01/09 05:17:30;;;;;;;35.97;28.70;;;;;;;;;;5006234;28;20404;-64
2022/01/09 05:19:59;;;;;;;36.47;28.37;;;;;;;;;;5006230;28;20026;-64
2022/01/09 05:22:28;;;;;;;36.87;27.90;;;;;;;;;;5003809;28;20045;-64
2022/01/09 05:24:58;;;;;;;37.97;28.70;;;;;;;;;;5004897;28;20046;-64
2022/01/09 05:27:24;;;;;;;36.83;27.30;;;;;;;;;;5007288;28;20022;-65
2022/01/09 05:29:51;;;;;;;36.80;27.57;;;;;;;;;;5001597;28;20030;-65
2022/01/09 05:32:17;;;;;;;36.70;27.93;;;;;;;;;;5003481;28;20064;-65
2022/01/09 05:34:43;;;;;;;32.67;26.33;;;;;;;;;;5009557;28;20760;-64
2022/01/09 05:37:09;;;;;;;36.23;26.27;;;;;;;;;;5008231;28;20065;-64
2022/01/09 05:39:35;;;;;;;33.23;26.53;;;;;;;;;;5004266;28;20037;-65
2022/01/09 05:42:03;;;;;;;34.90;26.20;;;;;;;;;;5003166;28;20042;-65
2022/01/09 05:44:31;;;;;;;29.93;24.30;;;;;;;;;;5006071;28;20472;-65
2022/01/09 05:46:57;;;;;;;30.97;24.83;;;;;;;;;;5005950;28;20849;-66
2022/01/09 05:49:23;;;;;;;34.77;25.43;;;;;;;;;;5005712;28;20053;-65
2022/01/09 05:51:49;;;;;;;33.63;25.33;;;;;;;;;;5002692;28;20095;-65
2022/01/09 05:54:15;;;;;;;35.53;26.00;;;;;;;;;;5008098;28;20436;-65
2022/01/09 05:56:41;;;;;;;30.13;23.83;;;;;;;;;;5002733;28;20044;-64
2022/01/09 05:59:07;;;;;;;30.33;24.20;;;;;;;;;;5002854;28;20049;-65
2022/01/09 06:01:35;;;;;;;30.90;25.50;;;;;;;;;;5005051;28;22180;-65
2022/01/09 06:04:01;;;;;;;31.33;24.13;;;;;;;;;;5005989;28;20072;-65
2022/01/09 06:06:27;;;;;;;31.13;24.70;;;;;;;;;;5004916;28;20492;-65
2022/01/09 06:08:53;;;;;;;35.70;26.00;;;;;;;;;;5007551;28;20054;-65
2022/01/09 06:11:19;;;;;;;33.50;27.60;;;;;;;;;;5003702;28;20069;-65
2022/01/09 06:13:45;;;;;;;37.20;30.20;;;;;;;;;;5007152;28;20128;-64
2022/01/09 06:16:11;;;;;;;39.70;29.83;;;;;;;;;;5005972;28;20033;-65
2022/01/09 06:18:37;;;;;;;39.90;30.47;;;;;;;;;;5004942;28;20026;-65
2022/01/09 06:21:03;;;;;;;43.00;32.10;;;;;;;;;;5007004;28;20522;-64
2022/01/09 06:23:29;;;;;;;46.53;33.43;;;;;;;;;;5003746;28;20053;-65
2022/01/09 06:25:55;;;;;;;46.73;34.67;;;;;;;;;;5003507;28;20030;-65
2022/01/09 06:28:21;;;;;;;48.33;36.40;;;;;;;;;;5002468;28;20392;-65
2022/01/09 06:30:48;;;;;;;50.07;37.73;;;;;;;;;;5007415;28;20117;-64
2022/01/09 06:33:14;;;;;;;52.50;39.33;;;;;;;;;;5003998;28;20079;-64
2022/01/09 06:35:40;;;;;;;57.87;39.67;;;;;;;;;;5005811;28;20050;-65
2022/01/09 06:38:07;;;;;;;56.17;39.93;;;;;;;;;;5007519;28;20033;-64
2022/01/09 06:40:34;;;;;;;56.90;41.00;;;;;;;;;;5005479;28;20030;-65
2022/01/09 06:43:00;;;;;;;54.70;38.83;;;;;;;;;;5006296;28;20037;-65
2022/01/09 06:45:27;;;;;;;58.80;40.13;;;;;;;;;;5005064;28;20057;-65
2022/01/09 06:47:54;;;;;;;56.23;40.50;;;;;;;;;;5004789;28;20030;-65
2022/01/09 06:50:21;;;;;;;56.70;39.47;;;;;;;;;;5004916;28;20049;-64
2022/01/09 06:52:47;;;;;;;57.23;39.60;;;;;;;;;;5000848;28;20391;-64
2022/01/09 06:55:13;;;;;;;47.77;37.83;;;;;;;;;;5002915;28;20131;-64
2022/01/09 06:57:39;;;;;;;48.23;37.17;;;;;;;;;;5004534;28;20554;-64
2022/01/09 07:00:07;;;;;;;53.43;37.07;;;;;;;;;;4990700;28;20369;-65
2022/01/09 07:02:33;;;;;;;50.37;37.00;;;;;;;;;;4989272;28;20038;-65
2022/01/09 07:04:59;;;;;;;50.17;35.20;;;;;;;;;;5004993;28;20095;-65
2022/01/09 07:07:25;;;;;;;54.23;36.70;;;;;;;;;;5002538;28;20491;-64
2022/01/09 07:09:51;;;;;;;52.37;36.40;;;;;;;;;;5003316;28;20037;-64
2022/01/09 07:12:17;;;;;;;51.43;37.20;;;;;;;;;;5005468;28;20368;-65
2022/01/09 07:14:43;;;;;;;49.83;36.10;;;;;;;;;;5005760;28;20571;-65
2022/01/09 07:17:10;;;;;;;45.80;35.00;;;;;;;;;;5001524;28;20046;-64
2022/01/09 07:19:37;;;;;;;49.83;35.87;;;;;;;;;;5005081;28;20080;-65
2022/01/09 07:22:03;;;;;;;50.87;36.10;;;;;;;;;;5003207;28;20034;-65
2022/01/09 07:24:30;;;;;;;47.50;35.40;;;;;;;;;;5004542;28;20037;-65
2022/01/09 07:26:55;;;;;;;50.77;36.77;;;;;;;;;;5004757;28;20072;-64
2022/01/09 07:29:21;;;;;;;50.23;36.30;;;;;;;;;;4989870;28;20440;-64
2022/01/09 07:31:48;;;;;;;48.97;35.77;;;;;;;;;;5004596;28;20035;-64
2022/01/09 07:34:14;;;;;;;48.80;34.90;;;;;;;;;;5008445;28;20026;-65
2022/01/09 07:36:40;;;;;;;48.43;34.80;;;;;;;;;;5011964;28;20395;-64
2022/01/09 07:39:06;;;;;;;49.63;36.30;;;;;;;;;;5006450;28;20049;-64
2022/01/09 07:41:32;;;;;;;56.67;38.67;;;;;;;;;;4991997;28;20073;-64
2022/01/09 07:43:58;;;;;;;54.40;38.37;;;;;;;;;;5007844;28;20831;-64
2022/01/09 07:46:24;;;;;;;56.07;36.73;;;;;;;;;;5001988;28;20089;-63
2022/01/09 07:48:50;;;;;;;54.63;37.00;;;;;;;;;;5005263;28;20022;-64
2022/01/09 07:51:16;;;;;;;58.93;38.90;;;;;;;;;;5003541;28;20403;-65
2022/01/09 07:53:42;;;;;;;64.73;42.87;;;;;;;;;;5015643;28;20170;-65
2022/01/09 07:56:08;;;;;;;70.80;45.13;;;;;;;;;;5009827;28;20125;-64
2022/01/09 07:58:34;;;;;;;72.37;45.50;;;;;;;;;;5011215;28;20026;-64
2022/01/09 08:01:00;;;;;;;68.87;45.03;;;;;;;;;;5011115;28;20064;-64
2022/01/09 08:03:26;;;;;;;79.37;50.10;;;;;;;;;;5011134;28;20055;-64
2022/01/09 08:05:52;;;;;;;73.33;47.30;;;;;;;;;;5013787;28;20068;-64
2022/01/09 08:08:18;;;;;;;69.97;45.83;;;;;;;;;;5015194;28;20045;-64
2022/01/09 08:10:44;;;;;;;64.03;43.07;;;;;;;;;;5016608;28;20053;-64
2022/01/09 08:13:10;;;;;;;65.77;42.53;;;;;;;;;;5015271;28;20026;-63
2022/01/09 08:15:36;;;;;;;64.23;42.93;;;;;;;;;;4996863;28;20056;-64
2022/01/09 08:18:02;;;;;;;74.80;46.53;;;;;;;;;;5014820;28;20034;-64
2022/01/09 08:20:28;;;;;;;72.77;45.67;;;;;;;;;;5013344;28;20475;-63
2022/01/09 08:22:54;;;;;;;65.37;43.27;;;;;;;;;;4981004;28;20116;-63
2022/01/09 08:25:20;;;;;;;59.60;42.50;;;;;;;;;;4996369;28;20026;-63
2022/01/09 08:27:47;;;;;;;61.70;41.13;;;;;;;;;;5002279;28;20045;-63
2022/01/09 08:30:13;;;;;;;68.10;43.70;;;;;;;;;;5014520;28;20065;-63
2022/01/09 08:32:40;;;;;;;59.60;40.63;;;;;;;;;;5005604;28;20026;-63
2022/01/09 08:35:06;;;;;;;64.63;41.87;;;;;;;;;;5026006;28;20030;-63
2022/01/09 08:37:32;;;;;;;65.80;42.13;;;;;;;;;;5013041;28;20025;-62
2022/01/09 08:39:59;;;;;;;73.33;44.57;;;;;;;;;;5015780;28;20141;-63
2022/01/09 08:42:24;;;;;;;67.43;44.03;;;;;;;;;;5012057;28;20041;-63
2022/01/09 08:44:51;;;;;;;73.90;45.57;;;;;;;;;;4995595;28;20018;-63
2022/01/09 08:47:17;;;;;;;73.90;46.47;;;;;;;;;;5013370;28;20041;-63
2022/01/09 08:49:43;;;;;;;73.17;45.47;;;;;;;;;;5029101;28;20033;-65
2022/01/09 08:52:09;;;;;;;63.60;43.33;;;;;;;;;;5010571;28;20034;-65
2022/01/09 08:54:35;;;;;;;61.90;40.63;;;;;;;;;;5015604;28;20026;-65
2022/01/09 08:57:01;;;;;;;59.97;41.77;;;;;;;;;;5014160;28;20396;-65
2022/01/09 08:59:27;;;;;;;60.43;40.80;;;;;;;;;;5014758;28;20504;-65
2022/01/09 09:01:54;;;;;;;61.07;41.70;;;;;;;;;;5011320;28;20030;-65
2022/01/09 09:04:20;;;;;;;61.03;41.73;;;;;;;;;;5020516;28;20033;-65
2022/01/09 09:06:46;;;;;;;60.20;40.43;;;;;;;;;;5012939;28;20034;-65
2022/01/09 09:09:12;;;;;;;57.30;40.73;;;;;;;;;;5015570;28;20048;-65
2022/01/09 09:11:38;;;;;;;57.10;39.83;;;;;;;;;;5013660;28;20494;-65
2022/01/09 09:14:05;;;;;;;58.90;40.57;;;;;;;;;;5014673;28;20050;-65
2022/01/09 09:16:31;;;;;;;57.97;39.27;;;;;;;;;;5013905;28;20053;-65
2022/01/09 09:18:57;;;;;;;58.03;39.20;;;;;;;;;;5012524;28;20022;-65
2022/01/09 09:21:23;;;;;;;55.73;40.13;;;;;;;;;;5013399;28;20026;-65
2022/01/09 09:23:49;;;;;;;56.70;39.10;;;;;;;;;;5015346;28;20087;-64
2022/01/09 09:26:21;;;;;;;51.53;38.47;;;;;;;;;;5013203;28;20033;-64
2022/01/09 09:28:47;;;;;;;60.07;39.63;;;;;;;;;;5019522;28;20472;-65
2022/01/09 09:31:14;;;;;;;58.70;39.87;;;;;;;;;;5022408;28;20022;-64
2022/01/09 09:33:40;;;;;;;57.50;39.33;;;;;;;;;;5014513;28;20026;-64
2022/01/09 09:36:06;;;;;;;53.57;38.10;;;;;;;;;;5012134;28;20038;-64
2022/01/09 09:38:33;;;;;;;51.73;37.77;;;;;;;;;;5012591;28;20018;-63
2022/01/09 09:40:59;;;;;;;54.50;37.53;;;;;;;;;;5012987;28;20026;-64
2022/01/09 09:43:25;;;;;;;55.87;38.60;;;;;;;;;;5014276;28;20022;-63
2022/01/09 09:45:52;;;;;;;51.83;37.57;;;;;;;;;;5013352;28;20476;-64
2022/01/09 09:48:19;;;;;;;55.27;38.63;;;;;;;;;;5012597;28;20026;-64
2022/01/09 09:50:45;;;;;;;56.50;39.10;;;;;;;;;;5006461;28;20036;-63
2022/01/09 09:53:11;;;;;;;55.57;40.20;;;;;;;;;;5014136;28;20018;-64
2022/01/09 09:55:37;;;;;;;55.37;38.33;;;;;;;;;;5014012;28;20038;-63
2022/01/09 09:58:03;;;;;;;54.83;38.80;;;;;;;;;;5030309;28;20036;-63
2022/01/09 10:00:29;;;;;;;53.23;36.80;;;;;;;;;;5013200;28;20699;-62
2022/01/09 10:02:57;;;;;;;51.40;37.60;;;;;;;;;;4993944;28;20037;-62
2022/01/09 10:05:24;;;;;;;53.80;38.40;;;;;;;;;;4993840;28;20032;-62
2022/01/09 10:07:54;;;;;;;52.67;38.07;;;;;;;;;;5018453;28;20025;-63
2022/01/09 10:10:21;;;;;;;53.60;39.30;;;;;;;;;;5013029;28;20493;-63
2022/01/09 10:12:48;;;;;;;54.67;39.77;;;;;;;;;;4995115;28;20570;-63
2022/01/09 10:15:19;;;;;;;52.63;37.93;;;;;;;;;;5013210;28;20049;-63
2022/01/09 10:17:47;;;;;;;50.57;37.53;;;;;;;;;;5013083;28;20084;-63
2022/01/09 10:20:17;;;;;;;49.37;34.90;;;;;;;;;;4995831;28;20037;-63
2022/01/09 10:22:46;;;;;;;49.90;36.23;;;;;;;;;;5012545;28;20030;-63
2022/01/09 10:25:21;;;;;;;48.70;35.87;;;;;;;;;;5010850;28;20057;-63
2022/01/09 10:27:51;;;;;;;55.13;36.33;;;;;;;;;;5009025;28;20022;-64
2022/01/09 10:30:21;;;;;;;50.10;36.57;;;;;;;;;;5009356;28;20479;-63
2022/01/09 10:32:47;;;;;;;47.77;35.10;;;;;;;;;;5010522;28;20543;-63
2022/01/09 10:35:17;;;;;;;48.17;36.90;;;;;;;;;;5009626;28;20033;-63
2022/01/09 10:37:44;;;;;;;55.50;37.77;;;;;;;;;;5008432;28;20056;-63
2022/01/09 10:40:12;;;;;;;44.57;36.00;;;;;;;;;;5011083;28;20376;-63
2022/01/09 10:42:38;;;;;;;50.80;37.90;;;;;;;;;;5015926;28;20029;-63
2022/01/09 10:45:21;;;;;;;50.37;36.13;;;;;;;;;;5009783;28;20030;-63
2022/01/09 10:47:48;;;;;;;46.77;36.27;;;;;;;;;;5011539;28;20025;-63
2022/01/09 10:50:30;;;;;;;48.87;36.10;;;;;;;;;;5009588;28;20057;-63
2022/01/09 10:53:12;;;;;;;51.17;36.83;;;;;;;;;;5006035;28;20141;-63
2022/01/09 10:55:38;;;;;;;48.17;35.10;;;;;;;;;;5004749;28;20117;-63
2022/01/09 10:58:21;;;;;;;47.80;36.53;;;;;;;;;;5020254;28;20486;-62
2022/01/09 11:00:48;;;;;;;49.00;37.57;;;;;;;;;;5010115;28;20041;-62
2022/01/09 11:03:14;;;;;;;48.97;36.03;;;;;;;;;;5010899;28;20415;-62
2022/01/09 11:05:40;;;;;;;50.20;38.07;;;;;;;;;;5011813;28;20030;-63
2022/01/09 11:08:07;;;;;;;49.37;37.47;;;;;;;;;;5007456;28;20034;-63
2022/01/09 11:10:34;;;;;;;48.63;37.20;;;;;;;;;;5011663;28;20105;-63
2022/01/09 11:13:02;;;;;;;47.77;36.53;;;;;;;;;;5013614;28;20033;-63
2022/01/09 11:15:30;;;;;;;50.43;35.80;;;;;;;;;;5010368;28;20037;-63
2022/01/09 11:18:01;;;;;;;48.40;36.20;;;;;;;;;;5012216;28;20029;-63
2022/01/09 11:20:27;;;;;;;51.03;36.43;;;;;;;;;;4994549;28;20026;-63
2022/01/09 11:22:56;;;;;;;47.17;37.40;;;;;;;;;;5011893;28;20053;-63
2022/01/09 11:25:31;;;;;;;54.20;39.80;;;;;;;;;;5021492;28;20026;-63
2022/01/09 11:28:13;;;;;;;46.50;36.93;;;;;;;;;;5029637;28;20703;-63
2022/01/09 11:30:58;;;;;;;48.03;36.60;;;;;;;;;;5018517;28;20029;-63
2022/01/09 11:33:24;;;;;;;54.45;40.53;;;;;;;;;;5017930;28;20038;-63
2022/01/09 11:38:29;;;;;;;51.93;38.87;;;;;;;;;;5141884;23;20425;-68
2022/01/09 11:41:13;;;;;;;52.73;38.60;;;;;;;;;;5037084;28;20048;-68
2022/01/09 11:43:51;;;;;;;53.47;39.80;;;;;;;;;;5036050;28;20029;-68
2022/01/09 11:46:17;;;;;;;51.93;39.77;;;;;;;;;;5035931;28;20053;-69
2022/01/09 11:48:52;;;;;;;53.20;39.97;;;;;;;;;;5037003;28;20022;-68
2022/01/09 11:51:18;;;;;;;52.73;38.93;;;;;;;;;;5017581;28;20437;-69
2022/01/09 11:54:03;;;;;;;54.83;40.23;;;;;;;;;;5028570;28;20109;-69
2022/01/09 11:56:49;;;;;;;54.05;38.90;;;;;;;;;;5034751;28;20393;-69
2022/01/09 11:59:22;;;;;;;51.30;39.00;;;;;;;;;;5034450;28;20037;-69
2022/01/09 12:01:49;;;;;;;57.83;42.43;;;;;;;;;;5037179;28;20392;-69
2022/01/09 12:04:33;;;;;;;58.40;40.80;;;;;;;;;;5018220;28;20062;-69
2022/01/09 12:07:00;;;;;;;56.92;41.38;;;;;;;;;;5037311;28;20030;-69
2022/01/09 12:09:32;;;;;;;53.00;39.03;;;;;;;;;;5037092;28;20069;-69
2022/01/09 12:12:05;;;;;;;51.13;39.03;;;;;;;;;;5034805;28;20394;-69
2022/01/09 12:17:36;;;;;;;46.97;37.47;;;;;;;;;;5034327;28;20041;-68
2022/01/09 12:20:07;;;;;;;56.67;42.00;;;;;;;;;;5035088;28;20029;-69
2022/01/09 12:22:58;;;;;;;48.77;36.93;;;;;;;;;;5035504;28;20052;-69
2022/01/09 12:25:24;;;;;;;50.87;39.40;;;;;;;;;;5015120;28;20056;-69
2022/01/09 12:27:57;;;;;;;48.33;37.23;;;;;;;;;;5035779;28;20056;-68
2022/01/09 12:31:08;;;;;;;52.07;38.00;;;;;;;;;;5035972;28;20022;-68
2022/01/09 12:33:34;;;;;;;47.57;36.17;;;;;;;;;;5027815;28;20474;-68
2022/01/09 12:36:16;;;;;;;49.00;36.93;;;;;;;;;;5032068;28;20029;-69
2022/01/09 12:38:42;;;;;;;52.00;36.67;;;;;;;;;;5032701;28;20103;-69
2022/01/09 12:41:10;;;;;;;48.07;35.93;;;;;;;;;;5033075;28;20030;-69
2022/01/09 12:43:37;;;;;;;52.37;38.53;;;;;;;;;;5034376;28;20029;-69
2022/01/09 12:46:10;;;;;;;53.53;37.57;;;;;;;;;;5032759;28;20021;-68
2022/01/09 12:48:36;;;;;;;51.47;37.30;;;;;;;;;;5035392;28;20086;-68
2022/01/09 12:51:09;;;;;;;48.33;35.30;;;;;;;;;;5030629;28;20025;-68
2022/01/09 12:53:39;;;;;;;45.83;36.17;;;;;;;;;;5031084;28;20048;-69
2022/01/09 12:56:08;;;;;;;50.30;37.60;;;;;;;;;;5033441;28;20053;-69
2022/01/09 12:58:36;;;;;;;47.23;37.40;;;;;;;;;;5032567;28;20032;-69
2022/01/09 13:01:03;;;;;;;47.07;36.93;;;;;;;;;;5033031;28;20036;-69
2022/01/09 13:03:30;;;;;;;50.23;37.90;;;;;;;;;;5029749;28;20025;-68
2022/01/09 13:05:58;;;;;;;52.10;37.93;;;;;;;;;;5021667;28;20029;-69
2022/01/09 13:08:24;;;;;;;48.70;37.63;;;;;;;;;;5032268;28;20029;-69
2022/01/09 13:11:01;;;;;;;51.77;37.20;;;;;;;;;;5015265;28;20116;-68
2022/01/09 13:13:28;;;;;;;49.97;36.30;;;;;;;;;;5031699;28;20029;-68
2022/01/09 13:15:54;;;;;;;47.63;34.80;;;;;;;;;;5034524;28;20045;-69
2022/01/09 13:18:37;;;;;;;50.30;35.67;;;;;;;;;;5032596;28;20029;-69
2022/01/09 13:21:13;;;;;;;47.60;34.67;;;;;;;;;;5029190;28;20032;-68
2022/01/09 13:23:54;;;;;;;47.70;36.90;;;;;;;;;;5030782;28;20029;-69
2022/01/09 13:26:21;;;;;;;50.27;37.37;;;;;;;;;;5027382;28;20451;-69
2022/01/09 13:28:48;;;;;;;45.60;35.70;;;;;;;;;;5027492;28;20038;-69
2022/01/09 13:31:14;;;;;;;46.77;36.67;;;;;;;;;;5030566;28;20387;-69
2022/01/09 13:33:50;;;;;;;50.17;36.27;;;;;;;;;;5028892;28;20025;-69
2022/01/09 13:36:26;;;;;;;48.70;38.13;;;;;;;;;;5031297;28;20064;-69
2022/01/09 13:38:52;;;;;;;50.70;39.60;;;;;;;;;;5029848;28;20470;-69
2022/01/09 13:41:19;;;;;;;47.53;35.73;;;;;;;;;;5033552;28;20021;-70
2022/01/09 13:43:48;;;;;;;45.50;35.17;;;;;;;;;;5027406;28;20017;-70
2022/01/09 13:46:14;;;;;;;45.87;36.43;;;;;;;;;;5032912;28;20080;-65
2022/01/09 13:48:43;;;;;;;46.13;35.33;;;;;;;;;;5031259;28;20029;-73
2022/01/09 13:51:09;;;;;;;46.80;35.03;;;;;;;;;;5034398;28;20030;-74
2022/01/09 13:53:35;;;;;;;47.73;37.10;;;;;;;;;;5018672;28;20116;-73
2022/01/09 13:56:05;;;;;;;45.13;34.53;;;;;;;;;;5033914;28;20025;-73
2022/01/09 13:58:31;;;;;;;50.83;37.90;;;;;;;;;;5031010;28;20055;-74
2022/01/09 14:00:57;;;;;;;43.73;35.77;;;;;;;;;;5033545;28;20470;-72
2022/01/09 14:03:27;;;;;;;46.73;35.23;;;;;;;;;;5028183;28;20798;-72
2022/01/09 14:05:53;;;;;;;46.73;36.57;;;;;;;;;;5033988;28;20049;-73
2022/01/09 14:08:20;;;;;;;46.67;37.73;;;;;;;;;;5021636;28;20065;-74
2022/01/09 14:10:47;;;;;;;46.27;36.40;;;;;;;;;;5033313;28;20025;-73
2022/01/09 14:13:15;;;;;;;49.37;36.17;;;;;;;;;;5022834;28;20517;-73
2022/01/09 14:15:41;;;;;;;46.53;36.33;;;;;;;;;;5031765;28;20109;-73
2022/01/09 14:18:21;;;;;;;48.57;36.30;;;;;;;;;;5022364;28;20026;-73
2022/01/09 14:20:48;;;;;;;50.23;35.93;;;;;;;;;;5032420;28;20100;-73
2022/01/09 14:23:14;;;;;;;45.27;34.57;;;;;;;;;;5020716;28;20030;-72
2022/01/09 14:25:41;;;;;;;46.37;35.97;;;;;;;;;;5031210;28;20056;-72